Terminal Aerodrome Forecast
Issued by NWS Milwaukee/Sullivan, WI

Home | Current Version | Previous Version | Text Only | Print | Product List | Glossary On
Versions: 1 2 3 4 5 6 7 8 9 10 11 12 13 14 15 16 17 18 19 20 21 22 23 24 25 26 27 28 29 30 31 32 33 34 35 36 37 38 39 40 41 42 43 44 45 46 47
000
FTUS43 KMKX 291747
TAFMSN
TAF
KMSN 291747Z 2918/3018 19009KT P6SM VCTS OVC050CB
     FM300100 22006KT P6SM SHRA VCTS BKN050CB
     FM300600 26005KT P6SM SHRA VCTS OVC025CB
     FM300900 32004KT P6SM SHRA VCTS OVC010CB
     FM301200 01008KT 5SM -SHRA BR OVC008
     FM301500 03012G20KT P6SM -SHRA OVC008
     FM301700 03012G20KT P6SM OVC015=

USA.gov is the U.S. government's official web portal to all federal, state and local government web resources and services.